createdAt,value
2023-05-17T00:02:27.594Z,3.33
2023-05-17T00:04:56.724Z,3.40
2023-05-17T00:07:25.394Z,6.07
2023-05-17T00:09:54.098Z,3.47
2023-05-17T00:12:22.381Z,3.63
2023-05-17T00:14:51.029Z,3.25
2023-05-17T00:17:20.864Z,3.50
2023-05-17T00:19:49.563Z,2.83
2023-05-17T00:22:17.925Z,3.15
2023-05-17T00:24:46.899Z,3.15
2023-05-17T00:27:15.043Z,3.05
2023-05-17T00:29:43.969Z,3.50
2023-05-17T00:32:12.310Z,3.00
2023-05-17T00:34:42.538Z,3.38
2023-05-17T00:37:10.915Z,3.13
2023-05-17T00:39:39.481Z,3.35
2023-05-17T00:42:08.547Z,3.65
2023-05-17T00:44:37.134Z,3.35
2023-05-17T00:47:05.815Z,3.30
2023-05-17T00:49:34.597Z,3.75
2023-05-17T00:52:04.426Z,3.20
2023-05-17T00:54:33.316Z,3.67
2023-05-17T00:57:01.849Z,3.28
2023-05-17T00:59:31.102Z,3.90
2023-05-17T01:01:59.726Z,4.05
2023-05-17T01:04:28.353Z,3.70
2023-05-17T01:06:57.472Z,3.97
2023-05-17T01:09:27.520Z,3.22
2023-05-17T01:12:00.958Z,3.75
2023-05-17T01:14:40.947Z,4.05
2023-05-17T01:17:15.831Z,4.05
2023-05-17T01:19:53.162Z,3.40
2023-05-17T01:22:29.577Z,3.80
2023-05-17T01:25:09.974Z,4.15
2023-05-17T01:27:42.689Z,3.65
2023-05-17T01:30:14.336Z,3.88
2023-05-17T01:32:43.620Z,3.83
2023-05-17T01:35:13.092Z,3.80
2023-05-17T01:37:41.708Z,3.75
2023-05-17T01:40:11.405Z,4.00
2023-05-17T01:42:43.350Z,3.63
2023-05-17T01:45:14.901Z,4.03
2023-05-17T01:50:16.583Z,4.53
2023-05-17T01:52:51.464Z,4.75
2023-05-17T01:55:27.786Z,5.10
2023-05-17T01:57:58.615Z,5.25
2023-05-17T02:00:28.163Z,5.80
2023-05-17T02:02:56.675Z,5.47
2023-05-17T02:05:25.589Z,5.65
2023-05-17T02:07:54.005Z,5.22
2023-05-17T02:10:22.789Z,5.13
2023-05-17T02:12:51.139Z,4.25
2023-05-17T02:15:21.108Z,4.47
2023-05-17T02:17:49.855Z,3.72
2023-05-17T02:20:18.493Z,4.00
2023-05-17T02:22:46.968Z,4.28
2023-05-17T02:25:15.650Z,4.40
2023-05-17T02:27:43.917Z,3.92
2023-05-17T02:30:15.746Z,4.25
2023-05-17T02:32:48.062Z,4.07
2023-05-17T02:35:16.914Z,4.20
2023-05-17T02:37:45.429Z,4.43
2023-05-17T02:40:14.870Z,4.30
2023-05-17T02:42:43.382Z,4.40
2023-05-17T02:45:12.800Z,4.97
2023-05-17T02:47:41.543Z,4.30
2023-05-17T02:50:11.992Z,5.32
2023-05-17T02:52:40.903Z,4.20
2023-05-17T02:55:11.215Z,4.50
2023-05-17T02:57:39.535Z,4.22
2023-05-17T03:00:12.811Z,4.15
2023-05-17T03:02:41.414Z,4.57
2023-05-17T03:05:12.333Z,5.38
2023-05-17T03:07:40.840Z,4.78
2023-05-17T03:10:10.267Z,5.22
2023-05-17T03:12:38.911Z,4.70
2023-05-17T03:15:08.374Z,4.25
2023-05-17T03:17:37.110Z,4.35
2023-05-17T03:20:08.004Z,4.82
2023-05-17T03:22:38.929Z,4.38
2023-05-17T03:25:07.765Z,3.67
2023-05-17T03:27:36.414Z,3.40
2023-05-17T03:30:05.424Z,3.70
2023-05-17T03:32:33.859Z,3.80
2023-05-17T03:35:02.600Z,3.47
2023-05-17T03:37:30.985Z,3.78
2023-05-17T03:40:01.196Z,4.25
2023-05-17T03:42:29.712Z,3.72
2023-05-17T03:44:58.871Z,4.00
2023-05-17T03:47:27.456Z,4.07
2023-05-17T03:49:56.185Z,4.00
2023-05-17T03:52:25.086Z,4.30
2023-05-17T03:54:53.802Z,4.32
2023-05-17T03:57:23.673Z,4.00
2023-05-17T03:59:52.333Z,4.30
2023-05-17T04:02:21.265Z,4.53
2023-05-17T04:04:51.445Z,4.95
2023-05-17T04:07:20.300Z,4.65
2023-05-17T04:09:49.109Z,4.35
2023-05-17T04:12:17.586Z,4.57
2023-05-17T04:14:47.497Z,4.28
2023-05-17T04:17:16.951Z,4.85
2023-05-17T04:19:45.956Z,4.20
2023-05-17T04:22:14.410Z,4.70
2023-05-17T04:24:43.163Z,4.30
2023-05-17T04:27:11.446Z,4.40
2023-05-17T04:29:41.058Z,4.38
2023-05-17T04:32:11.093Z,4.78
2023-05-17T04:34:39.757Z,4.78
2023-05-17T04:37:08.209Z,4.53
2023-05-17T04:39:36.976Z,5.72
2023-05-17T04:42:06.188Z,5.68
2023-05-17T04:44:34.937Z,4.90
2023-05-17T04:47:04.186Z,5.75
2023-05-17T04:49:34.702Z,4.97
2023-05-17T04:52:05.923Z,4.97
2023-05-17T04:54:35.042Z,5.30
2023-05-17T04:57:03.799Z,5.70
2023-05-17T04:59:32.656Z,5.03
2023-05-17T05:02:01.315Z,5.30
2023-05-17T05:04:29.962Z,5.35
2023-05-17T05:06:59.970Z,5.03
2023-05-17T05:09:28.688Z,5.70
2023-05-17T05:11:57.788Z,6.43
2023-05-17T05:14:26.625Z,4.65
2023-05-17T05:16:55.780Z,3.92
2023-05-17T05:19:24.893Z,4.88
2023-05-17T05:21:53.273Z,4.32
2023-05-17T05:24:23.695Z,4.53
2023-05-17T05:26:52.203Z,3.42
2023-05-17T05:29:20.848Z,4.15
2023-05-17T05:31:49.203Z,4.20
2023-05-17T05:34:18.035Z,4.70
2023-05-17T05:36:47.432Z,5.45
2023-05-17T05:39:16.370Z,4.75
2023-05-17T05:41:46.497Z,4.60
2023-05-17T05:44:15.297Z,4.50
2023-05-17T05:46:43.470Z,4.53
2023-05-17T05:49:12.371Z,4.47
2023-05-17T05:51:40.892Z,4.78
2023-05-17T05:54:09.928Z,4.45
2023-05-17T05:56:38.239Z,4.70
2023-05-17T05:59:08.879Z,4.97
2023-05-17T06:01:37.810Z,5.57
2023-05-17T06:04:06.785Z,4.95
2023-05-17T06:06:35.439Z,4.72
2023-05-17T06:09:07.233Z,4.63
2023-05-17T06:14:04.160Z,4.10
2023-05-17T06:16:33.988Z,4.35
2023-05-17T06:19:02.911Z,4.55
2023-05-17T06:21:31.339Z,4.03
2023-05-17T06:24:01.398Z,4.70
2023-05-17T06:26:31.665Z,4.30
2023-05-17T06:29:00.472Z,4.80
2023-05-17T06:31:29.577Z,5.07
2023-05-17T06:33:59.882Z,5.25
2023-05-17T06:36:28.187Z,4.97
2023-05-17T06:38:57.067Z,5.07
2023-05-17T06:41:25.503Z,4.80
2023-05-17T06:43:54.155Z,4.50
2023-05-17T06:46:22.805Z,5.55
2023-05-17T06:48:51.687Z,5.15
2023-05-17T06:51:21.583Z,5.78
2023-05-17T06:53:50.466Z,5.97
2023-05-17T06:56:18.901Z,8.77
2023-05-17T06:58:47.678Z,7.80
2023-05-17T07:01:17.199Z,7.72
2023-05-17T07:03:46.019Z,8.02
2023-05-17T07:06:14.565Z,7.47
2023-05-17T07:08:44.741Z,6.65
2023-05-17T07:11:13.357Z,6.63
2023-05-17T07:13:42.122Z,10.50
2023-05-17T07:16:10.501Z,10.80
2023-05-17T07:18:39.333Z,11.02
2023-05-17T07:21:08.612Z,11.70
2023-05-17T07:23:37.513Z,8.10
2023-05-17T07:26:07.351Z,7.85
2023-05-17T07:28:35.940Z,7.65
2023-05-17T07:31:04.403Z,6.20
2023-05-17T07:33:33.194Z,6.32
2023-05-17T07:36:01.766Z,7.13
2023-05-17T07:38:30.651Z,7.68
2023-05-17T07:40:59.244Z,7.43
2023-05-17T07:43:29.705Z,7.32
2023-05-17T07:45:58.187Z,7.25
2023-05-17T07:48:27.516Z,6.22
2023-05-17T07:50:56.586Z,6.65
2023-05-17T07:53:25.378Z,6.70
2023-05-17T07:55:53.994Z,6.88
2023-05-17T07:58:22.772Z,6.30
2023-05-17T08:00:52.832Z,5.80
2023-05-17T08:03:21.671Z,7.50
2023-05-17T08:05:50.252Z,12.68
2023-05-17T08:08:19.751Z,8.18
2023-05-17T08:10:48.207Z,8.15
2023-05-17T08:13:17.048Z,7.30
2023-05-17T08:15:45.916Z,11.13
2023-05-17T08:18:16.126Z,12.27
2023-05-17T08:20:45.890Z,11.38
2023-05-17T08:23:15.741Z,12.52
2023-05-17T08:25:44.473Z,13.15
2023-05-17T08:28:13.285Z,12.35
2023-05-17T08:30:41.927Z,9.30
2023-05-17T08:33:10.986Z,9.60
2023-05-17T08:35:40.836Z,6.40
2023-05-17T08:38:10.536Z,6.93
2023-05-17T08:40:39.011Z,7.00
2023-05-17T08:43:09.061Z,7.43
2023-05-17T08:45:38.181Z,9.55
2023-05-17T08:48:07.698Z,11.13
2023-05-17T08:50:36.913Z,13.10
2023-05-17T08:53:07.138Z,13.95
2023-05-17T08:55:36.564Z,11.85
2023-05-17T08:58:05.643Z,9.70
2023-05-17T09:00:35.237Z,11.02
2023-05-17T09:03:04.104Z,8.13
2023-05-17T09:05:33.092Z,7.70
2023-05-17T09:08:02.287Z,6.78
2023-05-17T09:10:32.688Z,7.72
2023-05-17T09:13:01.337Z,10.90
2023-05-17T09:15:31.305Z,5.63
2023-05-17T09:18:00.450Z,10.05
2023-05-17T09:20:34.334Z,6.38
2023-05-17T09:23:04.319Z,10.18
2023-05-17T09:25:34.411Z,7.18
2023-05-17T09:28:03.902Z,6.70
2023-05-17T09:30:34.497Z,5.20
2023-05-17T09:33:07.396Z,6.50
2023-05-17T09:35:36.943Z,5.95
2023-05-17T09:38:08.702Z,6.60
2023-05-17T09:40:41.616Z,7.90
2023-05-17T09:43:13.082Z,6.35
2023-05-17T09:48:15.280Z,5.82
2023-05-17T09:50:48.014Z,6.63
2023-05-17T09:53:27.373Z,7.38
2023-05-17T09:56:00.038Z,7.60
2023-05-17T09:58:30.032Z,9.60
2023-05-17T10:01:01.909Z,7.80
2023-05-17T10:03:33.410Z,6.57
2023-05-17T10:06:05.750Z,5.97
2023-05-17T10:08:35.162Z,6.35
2023-05-17T10:11:11.919Z,6.00
2023-05-17T10:13:44.986Z,8.80
2023-05-17T10:16:13.648Z,11.55
2023-05-17T10:18:42.414Z,10.82
2023-05-17T10:21:11.801Z,11.02
2023-05-17T10:23:42.224Z,10.27
2023-05-17T10:26:12.081Z,13.43
2023-05-17T10:28:41.354Z,10.77
2023-05-17T10:31:09.941Z,10.13
2023-05-17T10:33:40.019Z,10.63
2023-05-17T10:36:08.803Z,8.32
2023-05-17T10:38:42.542Z,7.53
2023-05-17T10:41:14.173Z,8.93
2023-05-17T10:43:43.695Z,9.23
2023-05-17T10:46:16.964Z,8.27
2023-05-17T10:48:46.965Z,7.65
2023-05-17T10:51:18.856Z,8.20
2023-05-17T10:54:06.746Z,9.43
2023-05-17T10:56:37.351Z,9.15
2023-05-17T10:59:25.083Z,10.00
2023-05-17T11:01:56.402Z,10.93
2023-05-17T11:06:57.601Z,14.82
2023-05-17T11:09:26.202Z,19.77
2023-05-17T11:12:10.174Z,15.75
2023-05-17T11:14:48.371Z,15.40
2023-05-17T11:17:20.925Z,12.18
2023-05-17T11:20:06.489Z,13.50
2023-05-17T11:22:43.297Z,14.10
2023-05-17T11:25:13.347Z,16.40
2023-05-17T11:27:48.187Z,11.27
2023-05-17T11:30:23.033Z,12.57
2023-05-17T11:32:53.556Z,14.68
2023-05-17T11:35:27.385Z,12.68
2023-05-17T11:38:14.794Z,10.75
2023-05-17T11:40:43.961Z,12.57
2023-05-17T11:43:15.838Z,12.80
2023-05-17T11:45:46.131Z,16.38
2023-05-17T11:48:15.634Z,12.50
2023-05-17T11:50:45.688Z,10.85
2023-05-17T11:53:14.713Z,10.40
2023-05-17T11:55:44.436Z,7.75
2023-05-17T11:58:16.714Z,6.45
2023-05-17T12:00:46.003Z,7.60
2023-05-17T12:03:18.698Z,7.88
2023-05-17T12:05:48.703Z,8.13
2023-05-17T12:08:18.535Z,7.10
2023-05-17T12:10:49.348Z,8.25
2023-05-17T12:13:19.054Z,8.00
2023-05-17T12:15:52.685Z,7.70
2023-05-17T12:18:21.406Z,11.15
2023-05-17T12:20:57.435Z,7.40
2023-05-17T12:23:32.618Z,6.57
2023-05-17T12:26:06.627Z,5.35
2023-05-17T12:28:38.185Z,4.72
2023-05-17T12:31:09.689Z,5.32
2023-05-17T12:33:41.572Z,5.72
2023-05-17T12:36:11.278Z,5.20
2023-05-17T12:38:41.991Z,6.28
2023-05-17T12:41:12.942Z,7.13
2023-05-17T12:43:45.652Z,6.35
2023-05-17T12:46:15.611Z,6.30
2023-05-17T12:48:44.237Z,6.47
2023-05-17T12:51:14.168Z,5.57
2023-05-17T12:53:43.668Z,5.28
2023-05-17T12:56:16.876Z,6.53
2023-05-17T12:59:04.526Z,5.43
2023-05-17T13:01:37.854Z,5.60
2023-05-17T13:04:06.824Z,5.90
2023-05-17T13:06:54.368Z,6.82
2023-05-17T13:09:24.338Z,6.15
2023-05-17T13:11:54.878Z,8.40
2023-05-17T13:14:38.324Z,7.15
2023-05-17T13:17:08.248Z,9.80
2023-05-17T13:19:36.948Z,9.68
2023-05-17T13:22:06.765Z,8.55
2023-05-17T13:24:36.272Z,8.38
2023-05-17T13:27:05.791Z,8.27
2023-05-17T13:29:39.349Z,6.95
2023-05-17T13:32:12.621Z,6.85
2023-05-17T13:34:42.796Z,7.65
2023-05-17T13:37:12.767Z,7.68
2023-05-17T13:39:42.743Z,7.18
2023-05-17T13:42:11.888Z,8.52
2023-05-17T13:44:41.957Z,8.13
2023-05-17T13:47:12.660Z,7.65
2023-05-17T13:49:41.279Z,7.95
2023-05-17T13:52:10.211Z,9.13
2023-05-17T13:54:39.243Z,9.57
2023-05-17T13:57:08.665Z,8.93
2023-05-17T13:59:36.965Z,8.73
2023-05-17T14:02:05.808Z,8.65
2023-05-17T14:04:36.357Z,8.90
2023-05-17T14:07:05.685Z,10.77
2023-05-17T14:09:34.775Z,10.27
2023-05-17T14:12:03.499Z,10.18
2023-05-17T14:14:32.064Z,12.20
2023-05-17T14:17:01.745Z,12.73
2023-05-17T14:19:30.527Z,13.15
2023-05-17T14:22:01.112Z,13.40
2023-05-17T14:24:29.490Z,10.25
2023-05-17T14:26:58.779Z,10.48
2023-05-17T14:29:27.122Z,9.98
2023-05-17T14:31:56.023Z,10.90
2023-05-17T14:34:24.592Z,10.88
2023-05-17T14:36:53.565Z,13.90
2023-05-17T14:39:23.302Z,11.10
2023-05-17T14:41:52.146Z,13.60
2023-05-17T14:44:20.740Z,12.43
2023-05-17T14:46:49.522Z,11.00
2023-05-17T14:49:17.893Z,10.02
2023-05-17T14:51:46.575Z,11.60
2023-05-17T14:54:15.223Z,12.65
2023-05-17T14:56:45.520Z,11.60
2023-05-17T14:59:13.976Z,13.00
2023-05-17T15:01:42.613Z,12.82
2023-05-17T15:04:11.084Z,14.70
2023-05-17T15:06:39.982Z,13.98
2023-05-17T15:09:12.434Z,13.20
2023-05-17T15:11:42.337Z,15.93
2023-05-17T15:14:12.134Z,14.20
2023-05-17T15:16:41.976Z,13.70
2023-05-17T15:19:10.375Z,13.57
2023-05-17T15:21:39.043Z,13.07
2023-05-17T15:24:08.260Z,13.13
2023-05-17T15:26:36.931Z,10.77
2023-05-17T15:29:05.410Z,10.55
2023-05-17T15:31:35.418Z,10.40
2023-05-17T15:34:04.996Z,11.30
2023-05-17T15:36:34.738Z,10.70
2023-05-17T15:39:03.203Z,11.32
2023-05-17T15:41:33.188Z,9.93
2023-05-17T15:44:01.948Z,10.43
2023-05-17T15:46:30.802Z,10.30
2023-05-17T15:49:00.851Z,13.15
2023-05-17T15:51:29.322Z,12.95
2023-05-17T15:53:57.818Z,14.52
2023-05-17T15:56:27.231Z,14.98
2023-05-17T15:58:55.744Z,12.95
2023-05-17T16:01:24.610Z,12.93
2023-05-17T16:03:53.035Z,14.88
2023-05-17T16:06:23.761Z,15.15
2023-05-17T16:08:52.243Z,13.18
2023-05-17T16:11:21.557Z,12.85
2023-05-17T16:13:49.777Z,12.98
2023-05-17T16:16:18.404Z,15.73
2023-05-17T16:18:46.901Z,15.20
2023-05-17T16:21:16.086Z,13.18
2023-05-17T16:23:46.610Z,13.15
2023-05-17T16:26:15.972Z,14.05
2023-05-17T16:28:44.261Z,12.82
2023-05-17T16:31:13.179Z,13.27
2023-05-17T16:33:42.558Z,11.43
2023-05-17T16:36:12.610Z,12.05
2023-05-17T16:38:41.113Z,10.63
2023-05-17T16:41:11.257Z,10.05
2023-05-17T16:43:39.501Z,9.40
2023-05-17T16:46:08.188Z,9.15
2023-05-17T16:48:36.708Z,8.43
2023-05-17T16:51:05.835Z,8.18
2023-05-17T16:53:34.222Z,8.73
2023-05-17T16:56:02.907Z,8.57
2023-05-17T16:58:32.556Z,8.75
2023-05-17T17:01:01.801Z,8.23
2023-05-17T17:03:30.389Z,8.02
2023-05-17T17:05:59.164Z,7.97
2023-05-17T17:08:27.701Z,8.10
2023-05-17T17:10:56.357Z,8.27
2023-05-17T17:13:24.974Z,8.68
2023-05-17T17:15:55.029Z,10.48
2023-05-17T17:18:24.212Z,11.90
2023-05-17T17:20:52.843Z,11.63
2023-05-17T17:23:21.983Z,14.23
2023-05-17T17:25:50.549Z,14.70
2023-05-17T17:28:18.996Z,11.07
2023-05-17T17:30:48.607Z,8.35
2023-05-17T17:33:18.485Z,10.00
2023-05-17T17:35:47.078Z,9.02
2023-05-17T17:38:15.625Z,9.80
2023-05-17T17:40:44.396Z,8.27
2023-05-17T17:43:13.040Z,9.52
2023-05-17T17:45:41.915Z,9.32
2023-05-17T17:48:10.723Z,9.40
2023-05-17T17:50:41.412Z,9.90
2023-05-17T17:53:09.952Z,10.63
2023-05-17T17:55:38.760Z,10.48
2023-05-17T17:58:07.348Z,10.85
2023-05-17T18:00:36.239Z,11.02
2023-05-17T18:03:04.755Z,12.75
2023-05-17T18:05:34.598Z,17.02
2023-05-17T18:08:05.008Z,15.27
2023-05-17T18:10:33.670Z,15.37
2023-05-17T18:13:02.214Z,13.73
2023-05-17T18:15:30.919Z,12.23
2023-05-17T18:17:59.828Z,11.68
2023-05-17T18:20:28.853Z,10.13
2023-05-17T18:22:57.463Z,9.70
2023-05-17T18:25:27.745Z,8.93
2023-05-17T18:27:56.052Z,7.97
2023-05-17T18:30:25.001Z,7.40
2023-05-17T18:32:53.527Z,8.70
2023-05-17T18:35:22.397Z,7.72
2023-05-17T18:37:51.271Z,8.60
2023-05-17T18:40:19.956Z,9.02
2023-05-17T18:42:49.887Z,8.68
2023-05-17T18:45:19.579Z,8.20
2023-05-17T18:47:48.159Z,8.70
2023-05-17T18:50:17.066Z,8.45
2023-05-17T18:52:45.516Z,8.57
2023-05-17T18:55:14.911Z,8.98
2023-05-17T18:57:46.914Z,10.05
2023-05-17T19:00:17.484Z,9.18
2023-05-17T19:02:46.270Z,8.43
2023-05-17T19:05:15.269Z,8.95
2023-05-17T19:07:44.428Z,8.20
2023-05-17T19:10:13.796Z,9.05
2023-05-17T19:12:44.799Z,9.32
2023-05-17T19:15:14.286Z,9.60
2023-05-17T19:17:44.220Z,8.18
2023-05-17T19:20:13.579Z,9.57
2023-05-17T19:22:42.244Z,9.18
2023-05-17T19:25:11.049Z,9.18
2023-05-17T19:27:39.482Z,10.05
2023-05-17T19:30:09.883Z,10.27
2023-05-17T19:32:39.440Z,16.00
2023-05-17T19:35:10.849Z,10.80
2023-05-17T19:37:39.404Z,9.85
2023-05-17T19:40:09.597Z,10.02
2023-05-17T19:42:39.580Z,9.95
2023-05-17T19:45:11.176Z,12.43
2023-05-17T19:47:39.996Z,9.20
2023-05-17T19:50:12.108Z,10.80
2023-05-17T19:52:41.221Z,9.55
2023-05-17T19:55:10.258Z,9.05
2023-05-17T19:57:38.850Z,8.90
2023-05-17T20:00:09.246Z,9.00
2023-05-17T20:02:37.961Z,9.02
2023-05-17T20:05:07.576Z,9.65
2023-05-17T20:07:38.129Z,9.23
2023-05-17T20:10:07.010Z,10.68
2023-05-17T20:12:35.375Z,9.35
2023-05-17T20:15:06.305Z,9.73
2023-05-17T20:17:34.767Z,9.27
2023-05-17T20:20:05.454Z,10.20
2023-05-17T20:22:33.920Z,10.70
2023-05-17T20:25:04.415Z,9.82
2023-05-17T20:27:32.965Z,11.95
2023-05-17T20:30:01.749Z,11.25
2023-05-17T20:32:30.358Z,12.07
2023-05-17T20:34:59.233Z,15.57
2023-05-17T20:37:27.703Z,13.52
2023-05-17T20:39:57.531Z,15.05
2023-05-17T20:42:28.332Z,15.23
2023-05-17T20:44:58.074Z,15.15
2023-05-17T20:47:26.667Z,16.55
2023-05-17T20:49:56.763Z,15.73
2023-05-17T20:52:38.291Z,13.57
2023-05-17T20:55:10.024Z,13.90
2023-05-17T20:57:40.071Z,12.90
2023-05-17T21:00:11.882Z,13.32
2023-05-17T21:02:40.815Z,12.52
2023-05-17T21:05:10.954Z,13.45
2023-05-17T21:07:40.491Z,15.20
2023-05-17T21:10:10.756Z,13.63
2023-05-17T21:12:40.607Z,14.82
2023-05-17T21:17:43.444Z,14.70
2023-05-17T21:20:13.383Z,18.75
2023-05-17T21:22:41.962Z,14.90
2023-05-17T21:25:11.659Z,15.10
2023-05-17T21:27:41.409Z,15.35
2023-05-17T21:30:11.066Z,14.45
2023-05-17T21:32:39.524Z,14.85
2023-05-17T21:35:09.079Z,13.10
2023-05-17T21:37:40.217Z,12.25
2023-05-17T21:40:10.136Z,14.20
2023-05-17T21:42:38.954Z,11.70
2023-05-17T21:45:10.136Z,10.73
2023-05-17T21:47:39.106Z,10.32
2023-05-17T21:50:09.118Z,11.18
2023-05-17T21:52:38.347Z,9.95
2023-05-17T21:55:08.647Z,11.52
2023-05-17T21:57:37.516Z,10.18
2023-05-17T22:00:12.746Z,9.55
2023-05-17T22:02:41.234Z,10.15
2023-05-17T22:05:11.073Z,9.98
2023-05-17T22:07:40.287Z,10.73
2023-05-17T22:10:10.378Z,11.93
2023-05-17T22:12:38.831Z,11.50
2023-05-17T22:15:11.050Z,9.40
2023-05-17T22:17:51.182Z,10.95
2023-05-17T22:22:52.653Z,9.95
2023-05-17T22:25:21.317Z,9.75
2023-05-17T22:27:49.962Z,8.45
2023-05-17T22:30:20.136Z,9.55
2023-05-17T22:32:48.527Z,9.00
2023-05-17T22:35:17.281Z,7.95
2023-05-17T22:37:45.584Z,8.90
2023-05-17T22:40:14.878Z,9.85
2023-05-17T22:42:43.327Z,9.27
2023-05-17T22:45:14.697Z,8.10
2023-05-17T22:47:46.920Z,9.13
2023-05-17T22:50:15.974Z,9.55
2023-05-17T22:52:46.665Z,10.18
2023-05-17T22:55:15.429Z,9.52
2023-05-17T22:57:43.901Z,10.43
2023-05-17T23:00:13.791Z,8.63
2023-05-17T23:02:42.208Z,9.00
2023-05-17T23:05:13.313Z,8.48
2023-05-17T23:07:43.304Z,8.38
2023-05-17T23:10:12.999Z,8.60
2023-05-17T23:12:41.379Z,8.90
2023-05-17T23:15:11.294Z,8.63
2023-05-17T23:17:40.006Z,9.15
2023-05-17T23:20:12.198Z,8.93
2023-05-17T23:22:42.035Z,8.70
2023-05-17T23:25:11.811Z,7.72
2023-05-17T23:27:40.424Z,8.05
2023-05-17T23:30:09.963Z,8.10
2023-05-17T23:32:38.856Z,8.88
2023-05-17T23:35:10.106Z,8.93
2023-05-17T23:37:38.433Z,7.95
2023-05-17T23:40:10.704Z,7.90
2023-05-17T23:42:39.099Z,8.25
2023-05-17T23:45:09.473Z,8.13
2023-05-17T23:47:41.130Z,7.53
2023-05-17T23:50:10.347Z,7.53
2023-05-17T23:52:39.840Z,8.57
2023-05-17T23:55:10.555Z,8.27
2023-05-17T23:57:40.303Z,8.93
